createdAt,value
2022-07-30T00:02:03.051Z,91.07
2022-07-30T00:04:36.155Z,91.31
2022-07-30T00:07:09.360Z,90.50
2022-07-30T00:09:43.878Z,91.57
2022-07-30T00:12:16.968Z,90.67
2022-07-30T00:14:50.121Z,90.94
2022-07-30T00:17:23.259Z,91.10
2022-07-30T00:19:56.569Z,90.10
2022-07-30T00:22:29.672Z,91.45
2022-07-30T00:25:04.692Z,90.00
2022-07-30T00:27:38.038Z,90.46
2022-07-30T00:30:12.894Z,90.77
2022-07-30T00:32:46.008Z,91.19
2022-07-30T00:35:19.395Z,90.72
2022-07-30T00:37:52.534Z,90.89
2022-07-30T00:40:27.264Z,91.39
2022-07-30T00:43:00.388Z,91.35
2022-07-30T00:45:34.487Z,91.49
2022-07-30T00:48:07.758Z,92.06
2022-07-30T00:50:41.582Z,91.29
2022-07-30T00:53:18.450Z,91.53
2022-07-30T00:55:52.902Z,91.83
2022-07-30T00:58:26.275Z,91.19
2022-07-30T01:00:59.489Z,92.09
2022-07-30T01:03:32.646Z,92.03
2022-07-30T01:06:06.054Z,92.26
2022-07-30T01:08:47.205Z,91.66
2022-07-30T01:11:21.696Z,91.48
2022-07-30T01:13:54.830Z,91.25
2022-07-30T01:16:28.107Z,91.81
2022-07-30T01:19:21.573Z,92.70
2022-07-30T01:22:04.228Z,92.74
2022-07-30T01:24:42.143Z,92.16
2022-07-30T01:27:19.999Z,91.34
2022-07-30T01:29:55.019Z,90.81
2022-07-30T01:32:29.362Z,89.68
2022-07-30T01:35:04.109Z,89.71
2022-07-30T01:37:40.569Z,90.30
2022-07-30T01:40:15.709Z,90.93
2022-07-30T01:42:54.852Z,90.83
2022-07-30T01:45:31.410Z,90.70
2022-07-30T01:48:12.115Z,91.27
2022-07-30T01:50:48.043Z,92.26
2022-07-30T01:53:32.719Z,92.19
2022-07-30T01:56:10.540Z,92.46
2022-07-30T01:58:49.901Z,92.29
2022-07-30T02:01:23.077Z,93.01
2022-07-30T02:03:56.325Z,91.80
2022-07-30T02:06:36.002Z,91.82
2022-07-30T02:09:11.508Z,91.84
2022-07-30T02:12:05.820Z,91.80
2022-07-30T02:14:50.855Z,91.23
2022-07-30T02:17:30.447Z,91.82
2022-07-30T02:20:15.005Z,91.37
2022-07-30T02:22:50.037Z,90.77
2022-07-30T02:25:23.909Z,92.53
2022-07-30T02:27:59.778Z,91.74
2022-07-30T02:30:37.755Z,92.87
2022-07-30T02:33:12.828Z,92.97
2022-07-30T02:35:46.588Z,92.45
2022-07-30T02:38:21.785Z,92.37
2022-07-30T02:40:57.145Z,92.44
2022-07-30T02:43:35.481Z,91.84
2022-07-30T02:46:13.569Z,92.32
2022-07-30T02:48:48.098Z,92.62
2022-07-30T02:51:23.119Z,93.01
2022-07-30T02:53:57.899Z,93.21
2022-07-30T02:56:32.399Z,92.27
2022-07-30T02:59:07.621Z,92.61
2022-07-30T03:01:44.040Z,92.40
2022-07-30T03:04:20.208Z,92.50
2022-07-30T03:06:54.932Z,92.47
2022-07-30T03:09:51.116Z,92.79
2022-07-30T03:12:23.808Z,91.60
2022-07-30T03:14:57.712Z,91.77
2022-07-30T03:17:38.853Z,91.76
2022-07-30T03:20:17.043Z,91.26
2022-07-30T03:22:54.674Z,92.07
2022-07-30T03:25:30.013Z,91.70
2022-07-30T03:28:04.936Z,91.81
2022-07-30T03:30:38.520Z,92.19
2022-07-30T03:33:13.582Z,92.80
2022-07-30T03:35:49.289Z,92.61
2022-07-30T03:38:23.918Z,92.50
2022-07-30T03:40:57.801Z,93.13
2022-07-30T03:43:33.127Z,92.53
2022-07-30T03:46:08.774Z,93.00
2022-07-30T03:48:43.990Z,93.31
2022-07-30T03:51:18.346Z,92.64
2022-07-30T03:53:52.628Z,93.30
2022-07-30T03:56:25.953Z,92.78
2022-07-30T03:58:59.124Z,92.85
2022-07-30T04:01:32.683Z,93.20
2022-07-30T04:04:08.365Z,92.45
2022-07-30T04:06:42.932Z,92.60
2022-07-30T04:09:16.180Z,92.40
2022-07-30T04:11:49.265Z,92.29
2022-07-30T04:14:22.401Z,92.46
2022-07-30T04:17:01.656Z,92.68
2022-07-30T04:19:40.147Z,94.36
2022-07-30T04:22:17.158Z,93.53
2022-07-30T04:24:52.157Z,93.46
2022-07-30T04:27:25.959Z,92.53
2022-07-30T04:29:59.862Z,93.63
2022-07-30T04:32:34.113Z,93.21
2022-07-30T04:35:09.585Z,93.74
2022-07-30T04:37:42.729Z,93.39
2022-07-30T04:40:15.837Z,93.25
2022-07-30T04:42:49.386Z,92.42
2022-07-30T04:45:22.552Z,92.75
2022-07-30T04:47:55.661Z,91.48
2022-07-30T04:50:31.037Z,91.32
2022-07-30T04:53:04.636Z,91.63
2022-07-30T04:55:40.627Z,92.16
2022-07-30T04:58:16.625Z,92.18
2022-07-30T05:00:53.086Z,91.53
2022-07-30T05:03:27.571Z,90.93
2022-07-30T05:06:02.584Z,91.29
2022-07-30T05:08:35.743Z,90.97
2022-07-30T05:11:13.433Z,90.56
2022-07-30T05:13:48.812Z,89.90
2022-07-30T05:16:21.939Z,89.21
2022-07-30T05:18:55.307Z,89.20
2022-07-30T05:21:29.885Z,88.29
2022-07-30T05:24:03.519Z,88.34
2022-07-30T05:26:36.712Z,87.38
2022-07-30T05:29:09.855Z,84.44
2022-07-30T05:31:52.830Z,81.04
2022-07-30T05:34:26.322Z,77.72
2022-07-30T05:37:01.109Z,74.12
2022-07-30T05:39:35.114Z,71.57
2022-07-30T05:42:13.978Z,69.59
2022-07-30T05:44:47.076Z,68.14
2022-07-30T05:47:21.107Z,67.19
2022-07-30T05:49:55.859Z,65.93
2022-07-30T05:52:30.328Z,64.74
2022-07-30T05:55:03.553Z,63.94
2022-07-30T05:57:37.166Z,63.43
2022-07-30T06:00:12.538Z,62.40
2022-07-30T06:02:45.762Z,61.58
2022-07-30T06:05:19.459Z,60.77
2022-07-30T06:07:53.894Z,58.81
2022-07-30T06:10:27.268Z,58.42
2022-07-30T06:13:00.472Z,57.94
2022-07-30T06:15:33.758Z,57.04
2022-07-30T06:18:06.879Z,57.30
2022-07-30T06:20:39.979Z,55.70
2022-07-30T06:23:14.394Z,54.74
2022-07-30T06:25:49.126Z,53.83
2022-07-30T06:28:39.002Z,53.07
2022-07-30T06:31:12.654Z,52.44
2022-07-30T06:33:45.860Z,50.74
2022-07-30T06:36:18.938Z,50.26
2022-07-30T06:38:53.344Z,48.48
2022-07-30T06:41:26.539Z,46.88
2022-07-30T06:43:59.654Z,47.82
2022-07-30T06:46:32.759Z,47.62
2022-07-30T06:49:06.074Z,48.41
2022-07-30T06:51:39.207Z,47.51
2022-07-30T06:54:13.904Z,48.12
2022-07-30T06:56:47.069Z,46.76
2022-07-30T06:59:20.358Z,44.53
2022-07-30T07:01:54.332Z,45.02
2022-07-30T07:04:27.561Z,44.13
2022-07-30T07:07:01.055Z,42.62
2022-07-30T07:09:47.182Z,44.22
2022-07-30T07:12:20.270Z,43.09
2022-07-30T07:14:53.459Z,42.35
2022-07-30T07:17:26.570Z,42.87
2022-07-30T07:20:02.568Z,43.29
2022-07-30T07:22:36.216Z,42.97
2022-07-30T07:25:11.273Z,43.16
2022-07-30T07:27:44.423Z,43.09
2022-07-30T07:30:37.557Z,43.33
2022-07-30T07:33:12.124Z,42.54
2022-07-30T07:35:49.757Z,42.86
2022-07-30T07:38:24.330Z,42.33
2022-07-30T07:40:58.738Z,42.35
2022-07-30T07:43:31.845Z,42.41
2022-07-30T07:46:05.039Z,42.26
2022-07-30T07:48:39.334Z,41.77
2022-07-30T07:51:12.607Z,41.16
2022-07-30T07:54:00.330Z,41.38
2022-07-30T07:56:40.140Z,39.15
2022-07-30T07:59:14.136Z,38.37
2022-07-30T08:01:50.413Z,37.43
2022-07-30T08:04:23.502Z,36.68
2022-07-30T08:06:56.610Z,36.67
2022-07-30T08:09:42.023Z,35.88
2022-07-30T08:12:19.261Z,37.62
2022-07-30T08:14:52.860Z,38.02
2022-07-30T08:17:26.138Z,38.32
2022-07-30T08:20:01.194Z,37.22
2022-07-30T08:22:34.296Z,37.14
2022-07-30T08:25:08.738Z,37.10
2022-07-30T08:27:45.211Z,36.64
2022-07-30T08:30:18.311Z,36.38
2022-07-30T08:32:51.396Z,37.96
2022-07-30T08:35:24.605Z,38.03
2022-07-30T08:37:57.722Z,37.20
2022-07-30T08:40:34.543Z,36.25
2022-07-30T08:43:09.516Z,36.10
2022-07-30T08:45:46.440Z,35.78
2022-07-30T08:48:23.002Z,36.15
2022-07-30T08:50:56.437Z,35.87
2022-07-30T08:53:30.682Z,36.10
2022-07-30T08:56:05.050Z,36.17
2022-07-30T08:58:39.762Z,36.28
2022-07-30T09:01:13.583Z,35.94
2022-07-30T09:03:46.801Z,36.63
2022-07-30T09:06:20.328Z,37.47
2022-07-30T09:08:53.518Z,36.61
2022-07-30T09:11:26.883Z,36.73
2022-07-30T09:14:10.705Z,35.78
2022-07-30T09:16:45.917Z,35.75
2022-07-30T09:19:21.822Z,35.61
2022-07-30T09:21:59.195Z,35.80
2022-07-30T09:24:44.073Z,35.59
2022-07-30T09:27:17.506Z,35.33
2022-07-30T09:29:59.929Z,35.72
2022-07-30T09:32:49.817Z,34.52
2022-07-30T09:35:24.007Z,35.70
2022-07-30T09:38:05.975Z,35.82
2022-07-30T09:40:43.398Z,35.60
2022-07-30T09:43:18.254Z,34.01
2022-07-30T09:45:58.275Z,34.66
2022-07-30T09:48:31.827Z,35.42
2022-07-30T09:51:05.254Z,35.78
2022-07-30T09:57:25.457Z,35.75
2022-07-30T10:00:18.652Z,36.29
2022-07-30T10:02:54.157Z,35.53
2022-07-30T10:05:27.841Z,34.51
2022-07-30T10:08:09.422Z,35.67
2022-07-30T10:10:50.980Z,34.34
2022-07-30T10:13:24.422Z,35.06
2022-07-30T10:16:06.684Z,36.37
2022-07-30T10:18:44.009Z,35.55
2022-07-30T10:21:17.691Z,33.92
2022-07-30T10:23:52.534Z,34.95
2022-07-30T10:26:26.674Z,34.67
2022-07-30T10:29:00.311Z,35.23
2022-07-30T10:31:47.134Z,35.49
2022-07-30T10:34:27.030Z,36.18
2022-07-30T10:37:06.668Z,36.17
2022-07-30T10:39:48.907Z,35.83
2022-07-30T10:42:40.107Z,35.78
2022-07-30T10:45:19.511Z,36.24
2022-07-30T10:47:54.230Z,35.67
2022-07-30T10:50:29.207Z,35.14
2022-07-30T10:53:02.924Z,35.92
2022-07-30T10:55:38.659Z,34.64
2022-07-30T10:58:15.635Z,34.77
2022-07-30T11:01:00.248Z,33.87
2022-07-30T11:03:41.157Z,33.20
2022-07-30T11:06:29.212Z,33.45
2022-07-30T11:09:03.478Z,33.09
2022-07-30T11:12:16.124Z,33.47
2022-07-30T11:15:07.375Z,33.86
2022-07-30T11:18:13.157Z,34.45
2022-07-30T11:21:21.528Z,34.95
2022-07-30T11:23:57.094Z,34.92
2022-07-30T11:26:52.881Z,34.27
2022-07-30T11:29:50.470Z,35.87
2022-07-30T11:32:32.031Z,35.38
2022-07-30T11:35:18.654Z,35.12
2022-07-30T11:38:05.078Z,34.25
2022-07-30T11:41:10.883Z,33.11
2022-07-30T11:43:43.954Z,33.57
2022-07-30T11:46:28.991Z,32.75
2022-07-30T11:49:08.629Z,32.68
2022-07-30T11:51:43.244Z,31.98
2022-07-30T11:54:16.987Z,32.18
2022-07-30T11:56:54.111Z,31.88
2022-07-30T11:59:27.937Z,32.34
2022-07-30T12:02:02.162Z,33.14
2022-07-30T12:04:44.649Z,32.64
2022-07-30T12:07:23.893Z,33.38
2022-07-30T12:10:14.586Z,33.14
2022-07-30T12:12:50.789Z,31.94
2022-07-30T12:15:32.734Z,31.98
2022-07-30T12:18:25.417Z,31.94
2022-07-30T12:21:01.254Z,32.70
2022-07-30T12:23:34.313Z,32.12
2022-07-30T12:26:07.463Z,31.39
2022-07-30T12:28:42.438Z,30.98
2022-07-30T12:31:17.636Z,32.25
2022-07-30T12:33:50.926Z,32.14
2022-07-30T12:36:30.779Z,31.54
2022-07-30T12:39:06.763Z,29.38
2022-07-30T12:41:45.638Z,30.70
2022-07-30T12:44:40.776Z,31.49
2022-07-30T12:47:23.851Z,31.30
2022-07-30T12:50:00.649Z,32.23
2022-07-30T12:52:37.695Z,33.04
2022-07-30T12:55:13.616Z,31.68
2022-07-30T12:58:02.987Z,30.85
2022-07-30T13:00:52.709Z,32.29
2022-07-30T13:03:28.348Z,31.60
2022-07-30T13:06:02.202Z,31.38
2022-07-30T13:08:52.485Z,32.70
2022-07-30T13:11:27.319Z,31.95
2022-07-30T13:14:01.708Z,31.62
2022-07-30T13:16:37.676Z,31.09
2022-07-30T13:19:12.963Z,31.12
2022-07-30T13:21:49.670Z,31.77
2022-07-30T13:24:23.505Z,31.66
2022-07-30T13:26:57.471Z,32.63
2022-07-30T13:29:30.985Z,32.32
2022-07-30T13:32:06.070Z,31.82
2022-07-30T13:34:39.990Z,32.18
2022-07-30T13:37:13.122Z,32.28
2022-07-30T13:39:46.195Z,33.34
2022-07-30T13:42:19.296Z,33.11
2022-07-30T13:44:54.707Z,31.77
2022-07-30T13:47:29.591Z,31.82
2022-07-30T13:50:02.786Z,32.48
2022-07-30T13:56:52.667Z,32.34
2022-07-30T13:59:51.256Z,32.92
2022-07-30T14:02:26.446Z,32.40
2022-07-30T14:05:34.374Z,33.23
2022-07-30T14:08:23.048Z,32.86
2022-07-30T14:11:31.962Z,31.94
2022-07-30T14:14:42.842Z,32.62
2022-07-30T14:17:56.601Z,32.80
2022-07-30T14:20:49.705Z,32.23
2022-07-30T14:24:28.462Z,33.07
2022-07-30T14:30:32.749Z,31.87
2022-07-30T14:33:41.082Z,32.53
2022-07-30T14:36:39.811Z,32.05
2022-07-30T14:39:45.778Z,32.82
2022-07-30T14:42:21.268Z,31.50
2022-07-30T14:44:57.073Z,32.46
2022-07-30T14:47:30.533Z,32.21
2022-07-30T14:50:04.865Z,31.49
2022-07-30T14:52:40.147Z,31.33
2022-07-30T14:55:13.322Z,32.27
2022-07-30T14:57:46.674Z,32.43
2022-07-30T15:00:21.314Z,32.82
2022-07-30T15:02:57.696Z,31.88
2022-07-30T15:05:31.073Z,32.33
2022-07-30T15:08:06.377Z,32.38
2022-07-30T15:10:41.287Z,32.58
2022-07-30T15:13:17.078Z,31.35
2022-07-30T15:15:51.924Z,31.71
2022-07-30T15:18:25.335Z,31.21
2022-07-30T15:20:58.552Z,31.80
2022-07-30T15:23:33.369Z,31.58
2022-07-30T15:26:06.716Z,30.96
2022-07-30T15:28:40.099Z,31.35
2022-07-30T15:31:13.363Z,31.28
2022-07-30T15:33:47.174Z,32.42
2022-07-30T15:36:20.270Z,32.18
2022-07-30T15:38:55.109Z,31.77
2022-07-30T15:41:28.243Z,31.60
2022-07-30T15:44:01.383Z,31.63
2022-07-30T15:46:34.786Z,33.82
2022-07-30T15:49:08.249Z,32.57
2022-07-30T15:51:47.452Z,32.75
2022-07-30T15:54:23.865Z,33.13
2022-07-30T15:57:01.152Z,33.45
2022-07-30T15:59:34.793Z,33.01
2022-07-30T16:02:07.937Z,33.60
2022-07-30T16:04:41.110Z,32.67
2022-07-30T16:07:14.491Z,32.48
2022-07-30T16:09:48.932Z,31.56
2022-07-30T16:12:22.047Z,32.20
2022-07-30T16:14:55.231Z,32.30
2022-07-30T16:17:28.527Z,32.07
2022-07-30T16:20:01.779Z,32.17
2022-07-30T16:22:34.871Z,32.87
2022-07-30T16:25:10.258Z,31.58
2022-07-30T16:27:43.409Z,32.07
2022-07-30T16:30:16.575Z,32.51
2022-07-30T16:32:50.518Z,32.97
2022-07-30T16:35:24.539Z,32.35
2022-07-30T16:38:02.710Z,32.87
2022-07-30T16:40:37.222Z,32.31
2022-07-30T16:43:10.360Z,33.22
2022-07-30T16:45:43.896Z,33.21
2022-07-30T16:48:17.100Z,33.15
2022-07-30T16:50:50.243Z,33.41
2022-07-30T16:53:23.366Z,33.41
2022-07-30T16:55:58.495Z,33.36
2022-07-30T16:58:31.779Z,33.09
2022-07-30T17:01:05.008Z,33.44
2022-07-30T17:03:38.138Z,34.00
2022-07-30T17:06:11.220Z,34.05
2022-07-30T17:08:44.812Z,33.70
2022-07-30T17:11:46.324Z,33.44
2022-07-30T17:14:13.698Z,33.70
2022-07-30T17:16:46.839Z,33.82
2022-07-30T17:19:19.962Z,33.26
2022-07-30T17:21:53.554Z,33.61
2022-07-30T17:24:26.698Z,33.58
2022-07-30T17:27:01.198Z,34.02
2022-07-30T17:29:34.349Z,34.06
2022-07-30T17:32:23.340Z,34.31
2022-07-30T17:34:56.463Z,34.38
2022-07-30T17:37:29.573Z,34.64
2022-07-30T17:40:27.478Z,34.66
2022-07-30T17:43:03.098Z,35.24
2022-07-30T17:45:37.673Z,34.68
2022-07-30T17:48:10.970Z,35.12
2022-07-30T17:50:44.076Z,35.22
2022-07-30T17:53:19.291Z,35.40
2022-07-30T17:55:57.439Z,35.31
2022-07-30T17:58:32.659Z,35.64
2022-07-30T18:01:06.094Z,35.75
2022-07-30T18:03:39.615Z,36.44
2022-07-30T18:06:18.319Z,36.20
2022-07-30T18:08:51.640Z,36.98
2022-07-30T18:11:25.193Z,37.65
2022-07-30T18:14:00.190Z,39.61
2022-07-30T18:16:33.317Z,40.13
2022-07-30T18:19:06.479Z,41.60
2022-07-30T18:21:39.606Z,42.93
2022-07-30T18:24:13.328Z,43.02
2022-07-30T18:26:46.895Z,41.78
2022-07-30T18:29:21.414Z,41.95
2022-07-30T18:31:54.507Z,42.07
2022-07-30T18:34:27.667Z,41.20
2022-07-30T18:37:00.745Z,41.80
2022-07-30T18:39:33.869Z,42.69
2022-07-30T18:42:07.812Z,43.53
2022-07-30T18:44:42.503Z,43.58
2022-07-30T18:47:15.731Z,43.74
2022-07-30T18:49:50.173Z,43.45
2022-07-30T18:52:23.530Z,43.88
2022-07-30T18:54:56.615Z,44.15
2022-07-30T18:57:29.741Z,44.18
2022-07-30T19:00:05.754Z,45.45
2022-07-30T19:02:39.781Z,46.94
2022-07-30T19:05:13.090Z,47.50
2022-07-30T19:07:55.359Z,47.89
2022-07-30T19:10:31.405Z,48.16
2022-07-30T19:13:05.154Z,48.63
2022-07-30T19:15:40.207Z,48.92
2022-07-30T19:18:13.261Z,49.55
2022-07-30T19:20:46.595Z,49.84
2022-07-30T19:23:19.736Z,50.35
2022-07-30T19:25:52.862Z,50.52
2022-07-30T19:28:26.777Z,51.50
2022-07-30T19:31:01.279Z,51.74
2022-07-30T19:33:34.366Z,51.59
2022-07-30T19:36:07.787Z,50.98
2022-07-30T19:38:44.147Z,51.98
2022-07-30T19:41:18.508Z,52.07
2022-07-30T19:43:57.917Z,52.76
2022-07-30T19:46:32.787Z,53.67
2022-07-30T19:49:07.051Z,53.98
2022-07-30T19:52:11.217Z,53.97
2022-07-30T19:54:33.639Z,55.10
2022-07-30T19:57:09.829Z,55.24
2022-07-30T19:59:46.545Z,54.47
2022-07-30T20:02:35.670Z,55.21
2022-07-30T20:05:11.788Z,55.80
2022-07-30T20:07:48.971Z,56.42
2022-07-30T20:10:22.617Z,56.58
2022-07-30T20:12:55.724Z,57.42
2022-07-30T20:15:30.314Z,57.36
2022-07-30T20:18:05.259Z,57.91
2022-07-30T20:20:41.329Z,58.19
2022-07-30T20:23:14.664Z,58.24
2022-07-30T20:25:48.098Z,58.09
2022-07-30T20:28:21.709Z,57.17
2022-07-30T20:31:00.424Z,58.13
2022-07-30T20:33:36.028Z,58.22
2022-07-30T20:36:11.594Z,58.56
2022-07-30T20:38:47.103Z,59.31
2022-07-30T20:41:27.104Z,59.31
2022-07-30T20:44:25.252Z,59.51
2022-07-30T20:47:28.261Z,60.06
2022-07-30T20:50:30.617Z,59.40
2022-07-30T20:53:14.442Z,58.70
2022-07-30T20:55:56.348Z,59.49
2022-07-30T20:58:53.519Z,59.82
2022-07-30T21:02:00.516Z,58.57
2022-07-30T21:04:46.509Z,59.42
2022-07-30T21:07:59.809Z,58.13
2022-07-30T21:10:50.102Z,58.51
2022-07-30T21:13:35.405Z,59.25
2022-07-30T21:16:32.498Z,59.42
2022-07-30T21:19:33.362Z,60.00
2022-07-30T21:22:35.969Z,60.03
2022-07-30T21:25:33.482Z,60.43
2022-07-30T21:28:27.681Z,61.67
2022-07-30T21:38:04.494Z,63.49
2022-07-30T21:41:15.472Z,64.01
2022-07-30T21:44:00.587Z,64.51
2022-07-30T21:47:11.643Z,65.25
2022-07-30T21:49:55.913Z,65.15
2022-07-30T21:53:04.427Z,65.21
2022-07-30T21:58:45.728Z,65.79
2022-07-30T22:01:39.509Z,66.40
2022-07-30T22:04:39.594Z,66.48
2022-07-30T22:07:13.206Z,66.19
2022-07-30T22:09:47.672Z,66.29
2022-07-30T22:12:20.781Z,65.74
2022-07-30T22:14:53.850Z,66.08
2022-07-30T22:17:36.596Z,66.44
2022-07-30T22:20:12.539Z,66.48
2022-07-30T22:22:45.628Z,66.32
2022-07-30T22:25:21.607Z,66.36
2022-07-30T22:27:57.195Z,66.58
2022-07-30T22:30:31.120Z,66.23
2022-07-30T22:33:13.071Z,66.32
2022-07-30T22:35:49.691Z,65.98
2022-07-30T22:38:23.239Z,66.33
2022-07-30T22:40:57.692Z,66.50
2022-07-30T22:43:35.512Z,66.64
2022-07-30T22:46:14.922Z,67.12
2022-07-30T22:49:03.822Z,67.27
2022-07-30T22:52:02.851Z,67.80
2022-07-30T22:54:30.477Z,67.59
2022-07-30T22:57:05.103Z,68.03
2022-07-30T22:59:58.448Z,68.01
2022-07-30T23:02:31.269Z,68.54
2022-07-30T23:05:04.924Z,69.29
2022-07-30T23:07:39.794Z,69.16
2022-07-30T23:10:18.054Z,69.79
2022-07-30T23:12:53.597Z,70.30
2022-07-30T23:15:26.974Z,69.88
2022-07-30T23:18:00.278Z,70.00
2022-07-30T23:20:33.688Z,70.23
2022-07-30T23:23:06.755Z,70.40
2022-07-30T23:25:40.615Z,69.97
2022-07-30T23:28:15.088Z,70.29
2022-07-30T23:30:49.041Z,69.99
2022-07-30T23:33:22.170Z,70.72
2022-07-30T23:35:55.261Z,70.58
2022-07-30T23:38:28.801Z,70.94
2022-07-30T23:41:04.027Z,71.35
2022-07-30T23:43:39.753Z,71.29
2022-07-30T23:46:13.914Z,71.65
2022-07-30T23:48:47.378Z,72.34
2022-07-30T23:51:20.619Z,71.91
2022-07-30T23:53:53.698Z,73.03
2022-07-30T23:56:27.232Z,72.66
2022-07-30T23:59:01.710Z,72.71
